Huntsville, Kentucky
Current Conditions -  °F | °C
As of 6:53 PM on Friday 28 Nov 2014 (Local Time) from KBWG Reporting Station
Clear Clear  
Wind Chill: 34°   Ceiling: Unl
Heat Index: 39°   Visibility: 10mi
Dew Point: 21°   Wind: 7mph
Humidity: 49%   Direction: 160°SSE
Pressure: 30.15"   Gusts: NA
Location:  37.16°N, 86.88°W
Report Text: KBWG 290053Z AUTO 16006KT 10SM CLR 04/M06 A3015 RMK AO2 SLP213 T00391061
Loading
Personal Weather Stations






























Interactive Weather Map New forecast layout! Learn more

10-Day Weather Forecast

Advertisements
Track Severe Weather on mobile